Time;durP1;ratioP1;P1;durP2;ratioP2;P2;SDS_P1;SDS_P2;PMS_P1;PMS_P2;Temp;Humidity;BMP_temperature;BMP_pressure;BME280_temperature;BME280_humidity;BME280_pressure;Samples;Min_cycle;Max_cycle;Signal;HPM_P1;HPM_P2
2023/07/17 00:00:15;;;;;;;8.48;5.60;;;17.10;1.00;;;;;;5056168;28;20419;-67
2023/07/17 00:02:41;;;;;;;8.23;5.03;;;17.00;1.00;;;;;;5056065;28;20056;-67
2023/07/17 00:05:08;;;;;;;11.70;6.05;;;17.00;1.00;;;;;;5056187;28;20029;-67
2023/07/17 00:07:33;;;;;;;10.20;5.72;;;17.00;1.00;;;;;;5056128;28;20025;-67
2023/07/17 00:09:59;;;;;;;9.13;5.78;;;17.00;1.00;;;;;;5056207;28;20112;-67
2023/07/17 00:12:26;;;;;;;8.75;5.63;;;17.00;1.00;;;;;;5055962;28;20025;-67
2023/07/17 00:14:52;;;;;;;8.38;6.22;;;17.00;1.00;;;;;;5056015;28;20033;-66
2023/07/17 00:17:17;;;;;;;9.80;5.80;;;17.00;1.00;;;;;;5055989;28;20044;-67
2023/07/17 00:19:53;;;;;;;10.65;5.65;;;17.00;1.00;;;;;;5055716;28;20487;-67
2023/07/17 00:22:18;;;;;;;10.27;6.60;;;17.00;7.20;;;;;;5055874;28;20029;-67
2023/07/17 00:24:44;;;;;;;10.05;6.55;;;17.00;13.90;;;;;;5055889;28;20032;-67
2023/07/17 00:27:09;;;;;;;12.50;6.60;;;17.00;17.60;;;;;;5055813;28;20029;-67
2023/07/17 00:29:35;;;;;;;12.45;6.75;;;17.00;17.40;;;;;;5055359;28;20025;-67
2023/07/17 00:32:00;;;;;;;12.52;7.35;;;16.90;20.70;;;;;;5055785;28;20036;-67
2023/07/17 00:34:26;;;;;;;12.02;7.43;;;16.90;21.20;;;;;;5055395;28;20125;-67
2023/07/17 00:36:52;;;;;;;16.05;6.95;;;16.90;24.10;;;;;;5055338;28;20621;-67
2023/07/17 00:39:19;;;;;;;11.52;6.90;;;16.80;25.30;;;;;;5055289;28;20064;-67
2023/07/17 00:41:46;;;;;;;14.48;7.25;;;16.80;24.50;;;;;;5055504;28;20025;-67
2023/07/17 00:44:11;;;;;;;11.45;6.55;;;16.70;25.30;;;;;;5055476;28;20502;-67
2023/07/17 00:46:37;;;;;;;12.23;6.35;;;16.60;27.50;;;;;;5055150;28;20059;-67
2023/07/17 00:49:04;;;;;;;12.05;6.68;;;16.60;27.70;;;;;;5055215;28;20435;-67
2023/07/17 00:51:31;;;;;;;11.90;6.15;;;16.50;28.60;;;;;;5055209;28;20021;-67
2023/07/17 00:53:56;;;;;;;14.93;7.00;;;16.40;28.20;;;;;;5055395;28;20033;-67
2023/07/17 00:56:25;;;;;;;11.23;6.95;;;16.30;41.60;;;;;;5055207;28;20029;-67
2023/07/17 00:58:51;;;;;;;9.65;6.55;;;16.30;50.40;;;;;;5054648;28;20115;-67
2023/07/17 01:01:17;;;;;;;10.15;6.30;;;16.20;53.90;;;;;;5055050;28;20501;-66
2023/07/17 01:03:43;;;;;;;10.38;6.47;;;16.10;56.40;;;;;;5055081;28;20021;-67
2023/07/17 01:06:08;;;;;;;12.35;6.18;;;16.10;59.70;;;;;;5055100;28;20029;-67
2023/07/17 01:08:34;;;;;;;8.90;6.38;;;16.10;63.30;;;;;;5055054;28;20073;-67
2023/07/17 01:11:00;;;;;;;10.63;6.05;;;16.10;65.00;;;;;;5055061;28;20090;-67
2023/07/17 01:13:25;;;;;;;12.60;7.28;;;16.10;69.20;;;;;;5054798;28;20174;-67
2023/07/17 01:15:51;;;;;;;12.52;7.35;;;16.10;84.30;;;;;;5054731;28;20033;-67
2023/07/17 01:18:16;;;;;;;12.35;6.70;;;16.10;87.80;;;;;;5054709;28;20037;-67
2023/07/17 01:20:42;;;;;;;12.27;6.78;;;16.10;87.60;;;;;;5054729;28;20064;-67
2023/07/17 01:23:07;;;;;;;14.68;7.07;;;16.10;84.20;;;;;;5054658;28;20382;-67
2023/07/17 01:25:33;;;;;;;13.80;7.57;;;16.10;90.50;;;;;;5054678;28;20171;-67
2023/07/17 01:27:59;;;;;;;11.02;7.15;;;16.20;74.00;;;;;;5054655;28;20441;-67
2023/07/17 01:30:25;;;;;;;14.27;7.63;;;16.40;57.10;;;;;;5054329;28;20067;-67
2023/07/17 01:32:51;;;;;;;17.75;7.30;;;16.50;40.90;;;;;;5054369;28;20032;-67
2023/07/17 01:35:17;;;;;;;11.75;6.65;;;16.70;18.80;;;;;;5054306;28;20090;-67
2023/07/17 01:37:42;;;;;;;11.60;6.57;;;17.00;1.00;;;;;;5053981;28;20123;-67
2023/07/17 01:40:09;;;;;;;12.45;6.35;;;17.10;1.00;;;;;;5054248;28;20028;-67
2023/07/17 01:42:36;;;;;;;12.55;6.43;;;17.10;1.00;;;;;;5054404;28;20395;-66
2023/07/17 01:45:01;;;;;;;13.70;6.95;;;17.10;1.00;;;;;;5054273;28;20025;-67
2023/07/17 01:47:27;;;;;;;14.20;6.47;;;17.20;1.00;;;;;;5054360;28;20029;-67
2023/07/17 01:49:52;;;;;;;12.60;6.03;;;17.30;1.00;;;;;;5054192;28;20089;-67
2023/07/17 01:52:18;;;;;;;12.73;5.75;;;17.20;1.00;;;;;;5053748;28;20056;-67
2023/07/17 01:54:43;;;;;;;10.80;5.82;;;17.20;1.00;;;;;;5054147;28;20032;-67
2023/07/17 01:57:09;;;;;;;7.70;4.63;;;17.10;1.00;;;;;;5053633;28;20103;-66
2023/07/17 01:59:35;;;;;;;11.18;5.40;;;17.10;1.00;;;;;;5052961;28;20112;-67
2023/07/17 02:02:00;;;;;;;10.18;5.13;;;17.10;1.00;;;;;;5053838;28;20104;-67
2023/07/17 02:04:26;;;;;;;10.07;4.85;;;17.10;1.00;;;;;;5054007;28;20467;-67
2023/07/17 02:06:52;;;;;;;7.95;4.20;;;17.20;1.00;;;;;;5053737;28;20025;-67
2023/07/17 02:09:17;;;;;;;10.73;5.15;;;17.10;1.10;;;;;;5053788;28;20036;-66
2023/07/17 02:11:43;;;;;;;11.60;5.22;;;17.00;1.00;;;;;;5053709;28;20037;-67
2023/07/17 02:14:08;;;;;;;9.82;4.68;;;17.00;13.50;;;;;;5053831;28;20398;-67
2023/07/17 02:16:34;;;;;;;8.65;5.13;;;16.90;14.50;;;;;;5053583;28;20029;-66
2023/07/17 02:19:00;;;;;;;9.70;4.93;;;16.90;14.40;;;;;;5053556;28;20029;-67
2023/07/17 02:21:25;;;;;;;10.13;4.88;;;16.90;22.80;;;;;;5053471;28;20029;-67
2023/07/17 02:23:51;;;;;;;11.88;4.90;;;16.80;16.00;;;;;;5053142;28;20017;-67
2023/07/17 02:26:17;;;;;;;10.18;4.57;;;16.90;23.20;;;;;;5053493;28;20036;-67
2023/07/17 02:28:42;;;;;;;9.85;4.50;;;16.80;25.30;;;;;;5053596;28;20033;-67
2023/07/17 02:31:08;;;;;;;8.82;4.78;;;16.80;17.80;;;;;;5053297;28;20035;-67
2023/07/17 02:33:33;;;;;;;7.50;4.45;;;16.80;21.20;;;;;;5053585;28;20040;-67
2023/07/17 02:35:59;;;;;;;7.93;4.22;;;16.80;26.20;;;;;;5053198;28;20025;-67
2023/07/17 02:38:24;;;;;;;9.95;4.70;;;16.00;18.50;;;;;;5053330;28;20037;-68
2023/07/17 02:40:50;;;;;;;9.20;4.32;;;16.70;25.80;;;;;;5053398;28;20029;-67
2023/07/17 02:43:15;;;;;;;10.20;4.75;;;16.70;30.30;;;;;;5053202;28;20025;-67
2023/07/17 02:45:41;;;;;;;10.00;4.97;;;16.70;28.80;;;;;;5053405;28;20025;-67
2023/07/17 02:48:07;;;;;;;11.73;4.60;;;16.60;48.40;;;;;;5053021;28;20033;-68
2023/07/17 02:50:32;;;;;;;9.43;5.13;;;16.60;30.00;;;;;;5053390;28;20025;-67
2023/07/17 02:52:58;;;;;;;12.05;5.80;;;16.70;52.60;;;;;;5053098;28;20029;-67
2023/07/17 02:55:23;;;;;;;11.70;5.03;;;16.60;43.90;;;;;;5052775;28;20025;-67
2023/07/17 02:57:49;;;;;;;9.80;5.68;;;16.60;42.20;;;;;;5053060;28;20033;-67
2023/07/17 03:00:15;;;;;;;13.18;5.35;;;16.70;28.00;;;;;;5053270;28;20475;-67
2023/07/17 03:02:43;;;;;;;11.25;4.88;;;16.70;27.80;;;;;;5052801;28;20028;-67
2023/07/17 03:05:09;;;;;;;9.50;4.97;;;16.70;29.10;;;;;;5053156;28;20086;-67
2023/07/17 03:07:38;;;;;;;9.88;4.38;;;16.70;29.10;;;;;;5053033;28;20033;-67
2023/07/17 03:10:04;;;;;;;10.82;4.75;;;16.70;1.20;;;;;;5053614;28;20029;-67
2023/07/17 03:12:30;;;;;;;7.85;4.28;;;16.70;1.00;;;;;;5057210;28;20029;-67
2023/07/17 03:14:55;;;;;;;11.10;4.95;;;16.80;1.00;;;;;;5057113;28;20399;-67
2023/07/17 03:17:21;;;;;;;7.45;4.80;;;16.70;1.00;;;;;;5057059;28;20402;-67
2023/07/17 03:19:46;;;;;;;8.40;5.00;;;16.80;1.00;;;;;;5056758;28;20032;-67
2023/07/17 03:22:12;;;;;;;10.55;4.70;;;16.80;1.00;;;;;;5056978;28;20454;-67
2023/07/17 03:24:37;;;;;;;11.98;4.95;;;16.80;1.00;;;;;;5057027;28;20091;-67
2023/07/17 03:27:03;;;;;;;9.77;5.07;;;16.80;11.30;;;;;;5057187;28;20074;-67
2023/07/17 03:29:29;;;;;;;12.52;5.15;;;16.80;22.30;;;;;;5057041;28;20474;-67
2023/07/17 03:31:54;;;;;;;10.23;5.28;;;16.70;25.70;;;;;;5056741;28;20032;-67
2023/07/17 03:34:20;;;;;;;9.40;4.68;;;16.60;18.70;;;;;;5056617;28;20206;-67
2023/07/17 03:36:45;;;;;;;12.93;5.35;;;16.50;29.70;;;;;;5056478;28;20107;-67
2023/07/17 03:39:11;;;;;;;10.23;4.93;;;16.50;49.40;;;;;;5056438;28;20029;-67
2023/07/17 03:41:37;;;;;;;10.93;5.00;;;16.40;51.50;;;;;;5056821;28;20029;-67
2023/07/17 03:44:03;;;;;;;11.93;4.80;;;16.40;61.90;;;;;;5056729;28;20395;-67
2023/07/17 03:46:30;;;;;;;8.88;4.13;;;16.40;63.90;;;;;;5056556;28;20032;-68
2023/07/17 03:48:56;;;;;;;10.38;4.95;;;16.30;56.20;;;;;;5056369;28;20052;-67
2023/07/17 03:51:22;;;;;;;9.60;4.72;;;16.30;60.50;;;;;;5056432;28;20029;-67
2023/07/17 03:53:49;;;;;;;9.57;4.40;;;16.30;54.10;;;;;;5056382;28;20402;-67
2023/07/17 03:56:15;;;;;;;8.82;4.00;;;;;;;;;;5056433;28;20025;-67
2023/07/17 03:58:40;;;;;;;8.88;4.47;;;16.30;48.50;;;;;;5056283;28;20111;-67
2023/07/17 04:01:06;;;;;;;6.10;4.28;;;16.40;60.30;;;;;;5056418;28;20029;-68
2023/07/17 04:03:31;;;;;;;8.88;4.25;;;16.30;68.50;;;;;;5056104;28;20025;-67
2023/07/17 04:05:57;;;;;;;9.15;4.63;;;16.40;72.00;;;;;;5055801;28;20036;-67
2023/07/17 04:08:22;;;;;;;7.20;4.00;;;16.30;67.10;;;;;;5055965;28;20036;-67
2023/07/17 04:10:48;;;;;;;6.15;4.10;;;16.40;57.20;;;;;;5056070;28;20028;-66
2023/07/17 04:13:14;;;;;;;8.13;4.35;;;16.40;45.50;;;;;;5056062;28;20391;-67
2023/07/17 04:15:41;;;;;;;9.00;3.70;;;16.40;50.00;;;;;;5056116;28;20021;-67
2023/07/17 04:18:06;;;;;;;11.00;4.43;;;16.40;41.80;;;;;;5055535;28;20575;-67
2023/07/17 04:20:33;;;;;;;9.75;4.15;;;16.40;50.70;;;;;;5056078;28;20116;-67
2023/07/17 04:22:58;;;;;;;10.48;4.30;;;16.40;40.00;;;;;;5055020;28;20110;-67
2023/07/17 04:25:24;;;;;;;7.25;3.85;;;16.40;41.10;;;;;;5055673;28;20068;-67
2023/07/17 04:27:50;;;;;;;7.85;4.10;;;16.40;43.60;;;;;;5055631;28;20029;-67
2023/07/17 04:30:15;;;;;;;7.18;4.38;;;16.40;42.20;;;;;;5055713;28;20037;-67
2023/07/17 04:32:41;;;;;;;6.85;3.88;;;16.40;35.90;;;;;;5055611;28;20123;-66
2023/07/17 04:35:07;;;;;;;6.40;3.90;;;16.40;39.10;;;;;;5055583;28;20086;-67
2023/07/17 04:37:32;;;;;;;6.25;3.88;;;16.40;53.70;;;;;;5055363;28;20044;-66
2023/07/17 04:39:58;;;;;;;9.73;3.97;;;16.50;53.20;;;;;;5055436;28;20048;-66
2023/07/17 04:42:24;;;;;;;7.30;3.83;;;16.40;50.00;;;;;;5055534;28;20112;-66
2023/07/17 04:44:49;;;;;;;7.88;4.10;;;16.40;43.30;;;;;;5055256;28;20021;-66
2023/07/17 04:47:15;;;;;;;10.02;4.15;;;16.30;55.20;;;;;;5055293;28;20029;-66
2023/07/17 04:49:40;;;;;;;5.60;3.40;;;16.30;40.60;;;;;;5054990;28;20029;-66
2023/07/17 04:52:06;;;;;;;6.13;3.85;;;16.30;39.10;;;;;;5055419;28;20033;-66
2023/07/17 04:54:33;;;;;;;8.88;4.03;;;16.40;35.30;;;;;;5055150;28;20070;-66
2023/07/17 04:56:58;;;;;;;8.15;3.80;;;16.80;17.00;;;;;;5055068;28;20032;-66
2023/07/17 04:59:24;;;;;;;8.35;3.95;;;17.40;1.00;;;;;;5054729;28;20395;-66
2023/07/17 05:01:49;;;;;;;6.93;3.05;;;18.00;1.00;;;;;;5055158;28;20031;-66
2023/07/17 05:04:15;;;;;;;6.47;2.92;;;18.60;1.00;;;;;;5054892;28;20025;-67
2023/07/17 05:06:41;;;;;;;5.70;3.33;;;18.70;99.90;;;;;;5055088;28;20067;-67
2023/07/17 05:09:06;;;;;;;6.55;3.15;;;18.80;99.90;;;;;;5055063;28;20120;-67
2023/07/17 05:11:32;;;;;;;4.57;3.30;;;18.70;99.90;;;;;;5055057;28;20025;-67
2023/07/17 05:13:58;;;;;;;4.40;3.13;;;19.00;99.90;;;;;;5054634;28;20087;-66
2023/07/17 05:16:24;;;;;;;5.88;3.20;;;18.20;99.90;;;;;;5054630;28;20029;-66
2023/07/17 05:18:49;;;;;;;8.32;3.58;;;17.60;1.00;;;;;;5054555;28;20029;-66
2023/07/17 05:21:15;;;;;;;8.45;3.67;;;17.40;1.00;;;;;;5054805;28;20025;-66
2023/07/17 05:23:40;;;;;;;11.73;3.60;;;17.20;1.00;;;;;;5054776;28;20032;-66
2023/07/17 05:26:06;;;;;;;7.22;3.47;;;17.30;1.00;;;;;;5054738;28;20044;-66
2023/07/17 05:28:33;;;;;;;6.22;3.63;;;17.60;1.00;;;;;;5054455;28;20436;-66
2023/07/17 05:30:58;;;;;;;6.85;3.40;;;17.90;1.00;;;;;;5054353;28;20065;-66
2023/07/17 05:33:25;;;;;;;6.05;3.03;;;18.10;1.00;;;;;;5054386;28;20033;-66
2023/07/17 05:35:51;;;;;;;6.60;2.90;;;18.20;99.90;;;;;;5054406;28;20497;-67
2023/07/17 05:38:16;;;;;;;6.13;3.20;;;18.80;99.90;;;;;;5053933;28;20271;-66
2023/07/17 05:40:42;;;;;;;7.80;3.10;;;19.10;99.90;;;;;;5054520;28;20135;-66
2023/07/17 05:43:08;;;;;;;7.18;3.50;;;19.50;99.90;;;;;;5054250;28;20017;-67
2023/07/17 05:45:34;;;;;;;5.30;2.80;;;19.70;1.00;;;;;;5034423;28;20040;-66
2023/07/17 05:48:00;;;;;;;4.68;2.85;;;19.80;1.00;;;;;;5034381;28;20495;-66
2023/07/17 05:50:25;;;;;;;7.28;3.38;;;20.20;99.90;;;;;;5034185;28;20025;-66
2023/07/17 05:52:51;;;;;;;7.28;3.20;;;20.10;51.50;;;;;;5033744;28;20022;-67
2023/07/17 05:55:16;;;;;;;7.80;2.50;;;20.00;99.90;;;;;;5033965;28;20029;-67
2023/07/17 05:57:42;;;;;;;6.68;3.00;;;19.80;99.90;;;;;;5034151;28;20056;-67
2023/07/17 06:00:16;;;;;;;7.85;3.40;;;20.20;1.00;;;;;;5033697;28;20163;-67
2023/07/17 06:02:42;;;;;;;5.95;3.05;;;20.10;1.00;;;;;;5033950;28;20498;-67
2023/07/17 06:05:09;;;;;;;7.40;3.17;;;21.10;1.00;;;;;;5032729;28;20037;-67
2023/07/17 06:07:34;;;;;;;5.88;2.92;;;21.10;1.00;;;;;;5033484;28;20112;-67
2023/07/17 06:10:00;;;;;;;5.20;3.28;;;20.60;99.90;;;;;;5033175;28;20112;-66
2023/07/17 06:12:26;;;;;;;5.43;2.83;;;20.60;99.90;;;;;;5033507;28;20083;-66
2023/07/17 06:14:51;;;;;;;7.82;3.30;;;20.80;20.70;;;;;;5031157;28;20031;-69
2023/07/17 06:17:17;;;;;;;7.60;3.33;;;20.70;1.00;;;;;;5032916;28;20065;-68
2023/07/17 06:19:43;;;;;;;7.97;2.85;;;21.00;1.00;;;;;;5030804;28;20411;-66
2023/07/17 06:22:09;;;;;;;7.95;3.13;;;21.10;99.90;;;;;;5030986;28;20025;-67
2023/07/17 06:24:34;;;;;;;5.43;3.17;;;21.20;1.00;;;;;;5033478;28;20029;-67
2023/07/17 06:27:00;;;;;;;15.50;7.57;;;21.30;99.90;;;;;;5030996;28;20033;-68
2023/07/17 06:29:26;;;;;;;7.28;3.10;;;21.40;1.00;;;;;;5029865;28;20040;-67
2023/07/17 06:31:51;;;;;;;6.13;3.33;;;21.50;1.00;;;;;;5038177;28;20025;-68
2023/07/17 06:34:18;;;;;;;7.82;3.85;;;22.20;1.00;;;;;;5021286;28;20044;-68
2023/07/17 06:36:44;;;;;;;7.43;4.10;;;21.60;99.90;;;;;;5025449;28;20045;-65
2023/07/17 06:39:11;;;;;;;6.90;3.47;;;21.60;99.90;;;;;;5020872;28;20078;-64
2023/07/17 06:41:36;;;;;;;8.98;3.67;;;22.00;1.00;;;;;;5021620;28;20209;-66
2023/07/17 06:44:02;;;;;;;7.15;3.42;;;21.70;99.90;;;;;;5028039;28;20053;-64
2023/07/17 06:46:27;;;;;;;5.45;3.40;;;22.00;70.30;;;;;;5031130;28;20543;-64
2023/07/17 06:48:53;;;;;;;7.20;4.22;;;22.60;99.90;;;;;;5031248;28;20037;-64
2023/07/17 06:51:18;;;;;;;8.57;4.07;;;21.90;99.90;;;;;;5034847;28;20033;-65
2023/07/17 06:53:44;;;;;;;8.57;4.05;;;22.00;1.00;;;;;;5033042;28;20369;-64
2023/07/17 06:56:10;;;;;;;8.07;4.28;;;21.80;1.00;;;;;;5032936;28;20025;-64
2023/07/17 06:58:35;;;;;;;8.15;4.35;;;22.20;99.90;;;;;;5030640;28;20037;-66
2023/07/17 07:01:01;;;;;;;7.60;4.30;;;21.90;99.90;;;;;;5031990;28;20044;-65
2023/07/17 07:03:27;;;;;;;9.07;4.40;;;22.20;99.90;;;;;;5023851;28;20037;-65
2023/07/17 07:05:57;;;;;;;8.25;4.25;;;21.90;99.90;;;;;;5021333;28;20025;-65
2023/07/17 07:08:24;;;;;;;8.07;4.38;;;22.30;99.90;;;;;;5031434;28;20056;-65
2023/07/17 07:10:51;;;;;;;9.45;4.43;;;21.90;99.90;;;;;;5029883;28;20471;-65
2023/07/17 07:13:17;;;;;;;8.23;4.05;;;21.90;99.90;;;;;;5020251;28;20506;-65
2023/07/17 07:15:42;;;;;;;12.10;4.53;;;23.10;91.70;;;;;;5013157;28;20038;-65
2023/07/17 07:18:08;;;;;;;8.75;4.60;;;22.30;99.90;;;;;;5011948;28;20034;-65
2023/07/17 07:20:33;;;;;;;8.35;4.72;;;22.30;99.90;;;;;;5013981;28;20041;-65
2023/07/17 07:22:59;;;;;;;8.52;4.43;;;22.60;1.00;;;;;;5013130;28;20041;-65
2023/07/17 07:25:25;;;;;;;10.40;4.85;;;22.40;1.00;;;;;;5020686;28;20395;-64
2023/07/17 07:27:50;;;;;;;10.90;5.05;;;22.10;65.40;;;;;;5030606;28;20025;-67
2023/07/17 07:30:16;;;;;;;8.90;5.57;;;21.80;99.90;;;;;;5022665;28;20037;-67
2023/07/17 07:32:41;;;;;;;12.20;5.55;;;22.90;1.00;;;;;;5012708;28;20412;-67
2023/07/17 07:35:07;;;;;;;9.18;5.22;;;23.40;1.00;;;;;;5023971;28;20032;-70
2023/07/17 07:37:33;;;;;;;8.02;5.22;;;22.90;1.00;;;;;;5032335;28;20050;-69
2023/07/17 07:39:58;;;;;;;8.88;5.57;;;23.00;99.90;;;;;;5020428;28;20045;-69
2023/07/17 07:42:24;;;;;;;9.38;5.45;;;22.70;99.90;;;;;;5017480;28;20080;-68
2023/07/17 07:44:50;;;;;;;11.23;5.80;;;23.20;99.90;;;;;;5020832;28;20038;-68
2023/07/17 07:47:15;;;;;;;10.30;5.88;;;22.60;99.90;;;;;;5013269;28;20569;-68
2023/07/17 07:49:41;;;;;;;13.13;6.15;;;22.80;99.90;;;;;;5015229;28;20026;-69
2023/07/17 07:52:06;;;;;;;10.05;5.60;;;23.60;99.90;;;;;;5030663;28;20422;-68
2023/07/17 07:54:32;;;;;;;8.70;5.22;;;24.00;99.90;;;;;;5026157;28;20029;-69
2023/07/17 07:56:58;;;;;;;11.40;6.07;;;24.20;29.40;;;;;;5018167;28;20382;-68
2023/07/17 07:59:23;;;;;;;12.32;6.20;;;23.60;99.90;;;;;;5036021;28;20037;-69
2023/07/17 08:01:49;;;;;;;9.43;5.70;;;23.30;99.90;;;;;;5031061;28;20060;-68
2023/07/17 08:04:14;;;;;;;11.85;6.20;;;23.10;99.90;;;;;;5034124;28;20033;-68
2023/07/17 08:06:40;;;;;;;10.50;6.30;;;23.30;99.90;;;;;;5021736;28;20026;-68
2023/07/17 08:09:05;;;;;;;10.45;5.55;;;23.60;99.90;;;;;;5030179;28;20088;-68
2023/07/17 08:11:31;;;;;;;11.65;6.78;;;24.80;99.90;;;;;;5035508;28;20048;-69
2023/07/17 08:13:56;;;;;;;10.63;6.22;;;24.00;1.00;;;;;;5035257;28;20388;-71
2023/07/17 08:16:22;;;;;;;11.05;6.30;;;23.70;1.00;;;;;;5034027;28;20120;-68
2023/07/17 08:18:48;;;;;;;10.57;6.20;;;23.50;99.90;;;;;;5016883;28;20029;-68
2023/07/17 08:21:14;;;;;;;10.57;6.20;;;23.90;31.80;;;;;;5020720;28;20487;-68
2023/07/17 08:23:40;;;;;;;7.07;5.47;;;23.00;45.40;;;;;;5016022;28;20018;-69
2023/07/17 08:26:05;;;;;;;8.27;5.70;;;23.50;6.30;;;;;;5018085;28;20030;-68
2023/07/17 08:28:31;;;;;;;14.02;7.13;;;23.80;26.70;;;;;;5015500;28;20136;-66
2023/07/17 08:30:56;;;;;;;11.75;5.85;;;23.30;21.70;;;;;;5027068;28;20044;-66
2023/07/17 08:33:22;;;;;;;12.55;6.50;;;23.50;99.90;;;;;;5033776;28;20039;-66
2023/07/17 08:35:48;;;;;;;10.60;6.53;;;22.90;99.90;;;;;;5033603;28;20495;-66
2023/07/17 08:38:14;;;;;;;10.93;6.60;;;23.50;99.90;;;;;;5017750;28;20524;-66
2023/07/17 08:40:40;;;;;;;13.15;6.05;;;23.10;99.90;;;;;;5016402;28;20026;-67
2023/07/17 08:43:07;;;;;;;13.48;7.00;;;23.00;99.90;;;;;;5022095;28;20022;-68
2023/07/17 08:45:33;;;;;;;12.80;6.60;;;22.00;99.90;;;;;;5020663;28;20021;-66
2023/07/17 08:48:00;;;;;;;15.80;7.13;;;21.90;99.90;;;;;;5033509;28;20057;-66
2023/07/17 08:50:26;;;;;;;15.82;6.80;;;21.60;99.90;;;;;;5034486;28;20025;-66
2023/07/17 08:52:54;;;;;;;14.63;7.07;;;22.00;99.90;;;;;;5033955;28;20033;-65
2023/07/17 08:55:21;;;;;;;14.05;7.32;;;22.40;99.90;;;;;;5025498;28;20060;-65
2023/07/17 08:57:48;;;;;;;15.85;7.05;;;22.80;99.90;;;;;;5034297;28;20022;-65
2023/07/17 09:00:16;;;;;;;14.32;6.53;;;22.90;99.90;;;;;;5034845;28;20498;-66
2023/07/17 09:02:42;;;;;;;12.85;6.70;;;22.90;99.90;;;;;;5023104;28;20076;-66
2023/07/17 09:05:08;;;;;;;15.35;6.43;;;23.00;99.90;;;;;;5027429;28;20052;-66
2023/07/17 09:07:34;;;;;;;15.07;7.30;;;23.10;99.90;;;;;;5029353;28;20059;-66
2023/07/17 09:12:57;;;;;;;14.77;7.15;;;22.80;86.90;;;;;;5054674;28;20458;-67
2023/07/17 09:15:24;;;;;;;11.23;6.88;;;22.40;99.90;;;;;;5058374;28;20534;-65
2023/07/17 09:17:50;;;;;;;13.35;7.00;;;22.90;84.60;;;;;;5068874;28;20055;-65
2023/07/17 09:20:17;;;;;;;10.15;6.00;;;22.80;99.90;;;;;;5072828;28;20041;-67
2023/07/17 09:22:43;;;;;;;11.38;6.40;;;22.20;99.90;;;;;;5069215;28;20048;-67
2023/07/17 09:25:11;;;;;;;11.50;6.53;;;22.40;99.90;;;;;;5069025;28;20037;-67
2023/07/17 09:27:45;;;;;;;9.77;6.63;;;22.30;99.90;;;;;;5069618;28;20025;-67
2023/07/17 09:30:12;;;;;;;11.55;5.63;;;22.10;99.90;;;;;;5050089;28;20391;-67
2023/07/17 09:32:38;;;;;;;12.30;5.60;;;23.30;99.90;;;;;;5055567;28;20027;-68
2023/07/17 09:35:05;;;;;;;9.65;5.43;;;22.90;99.90;;;;;;5071428;28;20107;-66
2023/07/17 09:37:32;;;;;;;7.95;5.32;;;22.70;99.90;;;;;;5068350;28;20017;-67
2023/07/17 09:40:07;;;;;;;10.52;5.63;;;21.70;99.90;;;;;;5059896;28;20082;-67
2023/07/17 09:42:33;;;;;;;10.10;5.40;;;21.60;99.90;;;;;;5050869;28;20548;-67
2023/07/17 09:45:00;;;;;;;7.82;4.72;;;21.80;99.90;;;;;;5052258;28;20501;-67
2023/07/17 09:47:26;;;;;;;9.60;5.45;;;21.70;99.90;;;;;;5064725;28;20039;-66
2023/07/17 09:49:54;;;;;;;9.95;5.20;;;21.60;99.90;;;;;;5068422;28;20037;-66
2023/07/17 09:52:20;;;;;;;12.68;5.18;;;21.00;1.00;;;;;;5057346;28;20040;-66
2023/07/17 09:54:46;;;;;;;8.55;5.47;;;21.10;1.00;;;;;;5056396;28;20033;-65
2023/07/17 09:57:28;;;;;;;11.30;5.47;;;21.30;1.00;;;;;;5063341;28;20394;-65
2023/07/17 09:59:57;;;;;;;9.35;4.85;;;22.10;99.90;;;;;;5056124;28;20052;-67
2023/07/17 10:02:28;;;;;;;8.70;4.47;;;23.00;99.90;;;;;;5050325;28;20124;-66
2023/07/17 10:04:57;;;;;;;10.35;4.55;;;23.40;31.80;;;;;;5048349;28;20032;-69
2023/07/17 10:07:24;;;;;;;8.48;5.10;;;23.30;1.00;;;;;;5060340;28;20029;-68
2023/07/17 10:09:50;;;;;;;8.98;4.60;;;23.40;1.00;;;;;;5069164;28;20027;-67
2023/07/17 10:12:17;;;;;;;8.23;4.30;;;23.50;1.00;;;;;;5068750;28;20483;-69
2023/07/17 10:14:44;;;;;;;10.98;4.72;;;24.10;1.00;;;;;;5066104;28;20545;-69
2023/07/17 10:17:33;;;;;;;8.23;3.92;;;24.40;1.00;;;;;;5068074;28;20032;-68
2023/07/17 10:20:03;;;;;;;7.43;4.20;;;23.90;1.00;;;;;;5058480;28;20056;-68
2023/07/17 10:22:34;;;;;;;6.55;3.85;;;24.30;1.00;;;;;;5049767;28;20026;-69
2023/07/17 10:25:22;;;;;;;8.05;4.03;;;23.10;1.00;;;;;;5038756;28;20120;-69
2023/07/17 10:27:57;;;;;;;7.07;4.03;;;23.20;1.00;;;;;;5056429;28;20116;-68
2023/07/17 10:30:27;;;;;;;7.20;4.00;;;23.10;1.00;;;;;;5051474;28;20041;-67
2023/07/17 10:33:13;;;;;;;10.00;3.78;;;23.80;1.00;;;;;;5056564;28;20032;-68
2023/07/17 10:35:45;;;;;;;9.52;3.85;;;24.20;1.00;;;;;;5056377;28;20029;-68
2023/07/17 10:38:12;;;;;;;4.82;3.47;;;24.40;1.00;;;;;;5050903;28;20040;-68
2023/07/17 10:40:37;;;;;;;7.97;3.75;;;24.70;1.00;;;;;;5061731;28;20544;-67
2023/07/17 10:43:12;;;;;;;7.38;3.90;;;25.50;1.00;;;;;;5052860;28;20061;-67
2023/07/17 10:45:38;;;;;;;7.13;3.92;;;25.10;99.90;;;;;;5062758;28;20025;-66
2023/07/17 10:48:06;;;;;;;6.88;3.70;;;25.00;99.90;;;;;;5051388;28;20495;-66
2023/07/17 10:50:31;;;;;;;6.93;3.33;;;24.10;1.00;;;;;;5059230;28;20039;-66
2023/07/17 10:53:02;;;;;;;9.90;3.88;;;23.50;1.00;;;;;;5070146;28;20108;-68
2023/07/17 10:55:29;;;;;;;8.32;3.78;;;23.10;1.00;;;;;;5059265;28;20072;-67
2023/07/17 10:57:56;;;;;;;7.47;3.95;;;22.80;1.00;;;;;;5051917;28;20445;-67
2023/07/17 11:00:22;;;;;;;7.50;4.05;;;22.80;1.00;;;;;;5038501;28;20030;-69
2023/07/17 11:02:47;;;;;;;9.02;3.97;;;22.80;33.20;;;;;;5059509;28;20051;-69
2023/07/17 11:05:13;;;;;;;9.57;4.18;;;23.30;99.90;;;;;;5064310;28;20432;-70
2023/07/17 11:07:39;;;;;;;7.97;4.07;;;23.80;1.00;;;;;;5063142;28;20024;-69
2023/07/17 11:10:11;;;;;;;7.80;3.95;;;23.60;1.00;;;;;;5062605;28;20032;-69
2023/07/17 11:12:38;;;;;;;8.85;3.67;;;23.80;1.00;;;;;;5043184;28;20095;-69
2023/07/17 11:15:11;;;;;;;6.30;3.92;;;24.40;1.00;;;;;;5034829;28;20021;-68
2023/07/17 11:17:37;;;;;;;9.00;3.90;;;24.10;1.00;;;;;;5052059;28;20029;-68
2023/07/17 11:20:03;;;;;;;10.68;3.85;;;24.00;22.50;;;;;;5052872;28;20179;-68
2023/07/17 11:22:31;;;;;;;8.55;3.60;;;23.90;13.80;;;;;;5053911;28;20074;-69
2023/07/17 11:24:57;;;;;;;9.07;3.90;;;23.90;14.50;;;;;;5051959;28;20083;-68
2023/07/17 11:27:22;;;;;;;8.00;3.38;;;23.90;14.20;;;;;;5035878;28;20361;-69
2023/07/17 11:29:50;;;;;;;9.75;3.70;;;23.60;1.00;;;;;;5034697;28;20372;-68
2023/07/17 11:32:19;;;;;;;4.50;3.33;;;23.60;1.00;;;;;;5037592;28;20094;-69
2023/07/17 11:34:45;;;;;;;7.18;3.33;;;23.80;19.80;;;;;;5047527;28;20128;-69
2023/07/17 11:37:38;;;;;;;6.38;3.40;;;24.00;1.00;;;;;;5037076;28;20052;-69
2023/07/17 11:40:05;;;;;;;6.77;3.60;;;23.50;1.00;;;;;;5036168;28;20036;-69
2023/07/17 11:42:52;;;;;;;5.07;3.30;;;24.40;1.00;;;;;;5048073;28;20024;-70
2023/07/17 11:45:20;;;;;;;5.47;3.13;;;23.80;1.00;;;;;;5054054;28;20036;-70
2023/07/17 11:47:46;;;;;;;6.53;3.30;;;24.40;1.00;;;;;;5053342;28;20029;-71
2023/07/17 11:50:11;;;;;;;9.18;3.67;;;24.80;1.00;;;;;;5050549;28;20552;-69
2023/07/17 11:52:37;;;;;;;10.45;3.58;;;24.60;1.00;;;;;;5049544;28;20031;-69
2023/07/17 11:55:03;;;;;;;6.97;3.95;;;24.00;1.00;;;;;;5074095;28;20107;-70
2023/07/17 11:57:28;;;;;;;8.30;4.05;;;23.40;1.00;;;;;;5060208;28;20048;-70
2023/07/17 12:00:10;;;;;;;8.82;3.53;;;23.60;1.00;;;;;;5053318;28;20521;-70
2023/07/17 12:02:35;;;;;;;5.43;3.65;;;23.90;1.00;;;;;;5052893;28;20491;-70
2023/07/17 12:05:01;;;;;;;11.82;4.05;;;24.00;1.00;;;;;;5046673;28;20037;-70
2023/07/17 12:07:27;;;;;;;9.00;3.78;;;24.20;1.00;;;;;;5042762;28;20040;-70
2023/07/17 12:09:52;;;;;;;4.68;3.25;;;24.40;1.00;;;;;;5045391;28;20417;-70
2023/07/17 12:12:18;;;;;;;5.47;3.25;;;24.50;1.00;;;;;;5044746;28;20063;-70
2023/07/17 12:14:43;;;;;;;10.63;3.83;;;24.90;1.00;;;;;;5037806;28;20513;-70
2023/07/17 12:17:09;;;;;;;9.40;3.58;;;24.10;1.00;;;;;;5054765;28;20146;-70
2023/07/17 12:19:34;;;;;;;8.00;3.85;;;23.30;1.00;;;;;;5038940;28;20111;-70
2023/07/17 12:22:00;;;;;;;11.63;4.60;;;22.80;1.00;;;;;;5051141;28;20150;-69
2023/07/17 12:24:26;;;;;;;6.28;3.72;;;23.00;1.00;;;;;;5049331;28;20087;-68
2023/07/17 12:26:52;;;;;;;7.97;4.13;;;23.30;1.00;;;;;;5044204;28;20036;-71
2023/07/17 12:29:17;;;;;;;7.65;4.38;;;23.20;19.60;;;;;;5053572;28;20029;-69
2023/07/17 12:31:43;;;;;;;7.85;4.07;;;23.30;9.10;;;;;;5053358;28;20144;-69
2023/07/17 12:34:09;;;;;;;7.18;4.30;;;23.20;13.80;;;;;;5045372;28;20053;-69
2023/07/17 12:36:35;;;;;;;11.18;4.43;;;23.90;1.00;;;;;;5034309;28;20056;-69
2023/07/17 12:39:16;;;;;;;9.95;3.97;;;23.60;1.00;;;;;;5033899;28;20383;-69
2023/07/17 12:41:42;;;;;;;10.32;4.50;;;23.60;1.00;;;;;;5034497;28;20029;-69
2023/07/17 12:44:09;;;;;;;7.50;4.50;;;23.60;1.00;;;;;;5048724;28;20509;-68
2023/07/17 12:46:35;;;;;;;8.95;4.15;;;23.90;1.00;;;;;;5053341;28;20029;-70